Time;durP1;ratioP1;P1;durP2;ratioP2;P2;SDS_P1;SDS_P2;PMS_P1;PMS_P2;Temp;Humidity;BMP_temperature;BMP_pressure;BME280_temperature;BME280_humidity;BME280_pressure;Samples;Min_cycle;Max_cycle;Signal;HPM_P1;HPM_P2
2023/03/23 00:01:21;;;;;;;27.80;3.90;;;11.10;99.90;;;;;;4982127;28;20852;-75
2023/03/23 00:03:51;;;;;;;27.00;3.97;;;11.10;99.90;;;;;;4979722;28;20030;-75
2023/03/23 00:06:19;;;;;;;27.55;3.35;;;11.20;99.90;;;;;;4981468;28;20042;-75
2023/03/23 00:08:49;;;;;;;28.55;3.33;;;11.10;99.90;;;;;;4957850;28;20102;-75
2023/03/23 00:11:20;;;;;;;31.58;4.20;;;11.20;99.90;;;;;;4964022;28;20074;-74
2023/03/23 00:13:51;;;;;;;31.42;3.85;;;11.20;99.90;;;;;;4965955;28;20096;-74
2023/03/23 00:16:18;;;;;;;29.63;3.97;;;11.20;99.90;;;;;;4981450;28;20034;-75
2023/03/23 00:18:49;;;;;;;31.33;3.63;;;11.10;99.90;;;;;;4982203;28;20447;-75
2023/03/23 00:21:15;;;;;;;22.27;3.80;;;11.10;99.90;;;;;;4971430;28;20101;-75
2023/03/23 00:23:44;;;;;;;29.17;4.38;;;11.20;99.90;;;;;;4966301;28;20520;-76
2023/03/23 00:26:10;;;;;;;28.48;3.70;;;11.10;99.90;;;;;;4979960;28;20182;-76
2023/03/23 00:28:36;;;;;;;34.22;6.05;;;11.10;99.90;;;;;;4981841;28;20163;-75
2023/03/23 00:31:05;;;;;;;28.15;4.38;;;11.10;99.90;;;;;;4963725;28;20034;-75
2023/03/23 00:33:37;;;;;;;40.47;4.20;;;11.00;99.90;;;;;;4981362;28;20532;-75
2023/03/23 00:36:04;;;;;;;29.35;4.43;;;11.10;99.90;;;;;;4975338;28;20040;-75
2023/03/23 00:38:30;;;;;;;35.70;4.13;;;11.10;99.90;;;;;;4981131;28;20038;-74
2023/03/23 00:40:57;;;;;;;27.48;4.03;;;11.10;99.90;;;;;;4979239;28;20171;-75
2023/03/23 00:43:24;;;;;;;33.55;5.55;;;11.10;99.90;;;;;;4953936;28;20039;-74
2023/03/23 00:45:53;;;;;;;32.15;3.95;;;11.10;99.90;;;;;;4972361;28;20439;-74
2023/03/23 00:48:21;;;;;;;28.10;4.10;;;11.10;99.90;;;;;;4971434;28;20026;-75
2023/03/23 00:50:46;;;;;;;32.45;3.92;;;11.10;99.90;;;;;;4963983;28;20490;-76
2023/03/23 00:53:12;;;;;;;26.40;4.03;;;11.00;99.90;;;;;;4963713;28;20526;-76
2023/03/23 00:55:40;;;;;;;29.60;4.53;;;10.90;99.90;;;;;;4963355;28;20122;-75
2023/03/23 00:58:05;;;;;;;31.25;5.05;;;10.90;99.90;;;;;;4957244;28;20351;-75
2023/03/23 01:00:31;;;;;;;34.15;5.53;;;11.00;99.90;;;;;;4980273;28;20040;-75
2023/03/23 01:02:56;;;;;;;32.40;5.00;;;11.00;99.90;;;;;;4982222;28;20042;-75
2023/03/23 01:05:22;;;;;;;23.60;4.35;;;11.00;99.90;;;;;;4980696;28;20064;-75
2023/03/23 01:07:48;;;;;;;31.33;4.80;;;11.00;99.90;;;;;;4980400;28;20128;-76
2023/03/23 01:10:17;;;;;;;35.17;5.30;;;10.90;99.90;;;;;;4968807;28;20069;-75
2023/03/23 01:12:46;;;;;;;35.00;4.63;;;10.90;99.90;;;;;;4947704;28;20034;-75
2023/03/23 01:15:16;;;;;;;27.92;4.13;;;10.90;99.90;;;;;;4979709;28;20022;-75
2023/03/23 01:17:43;;;;;;;33.58;4.78;;;10.80;99.90;;;;;;4973647;28;20081;-76
2023/03/23 01:20:10;;;;;;;32.58;4.97;;;10.70;99.90;;;;;;4980604;28;20113;-75
2023/03/23 01:22:37;;;;;;;32.03;4.78;;;10.70;99.90;;;;;;4969317;28;20414;-75
2023/03/23 01:25:03;;;;;;;32.28;5.28;;;10.60;99.90;;;;;;4945162;28;20447;-75
2023/03/23 01:27:28;;;;;;;38.38;5.45;;;10.60;99.90;;;;;;4957186;28;20030;-75
2023/03/23 01:29:54;;;;;;;43.40;6.22;;;10.70;99.90;;;;;;4959178;28;20073;-75
2023/03/23 01:32:20;;;;;;;34.55;5.15;;;10.60;99.90;;;;;;4956277;28;20026;-75
2023/03/23 01:34:46;;;;;;;39.40;4.97;;;10.70;99.90;;;;;;4956091;28;20026;-75
2023/03/23 01:37:11;;;;;;;43.83;5.10;;;10.70;99.90;;;;;;4950026;28;20030;-75
2023/03/23 01:39:37;;;;;;;34.30;4.78;;;10.70;99.90;;;;;;4961733;28;20094;-75
2023/03/23 01:42:03;;;;;;;36.72;4.45;;;10.60;99.90;;;;;;4960153;28;20030;-75
2023/03/23 01:44:32;;;;;;;41.08;4.53;;;10.60;99.90;;;;;;4960442;28;20509;-75
2023/03/23 01:46:57;;;;;;;40.08;4.63;;;10.60;99.90;;;;;;4947784;28;20041;-74
2023/03/23 01:49:37;;;;;;;45.70;5.85;;;10.60;99.90;;;;;;4961999;28;20027;-75
2023/03/23 01:52:25;;;;;;;37.15;4.78;;;10.60;99.90;;;;;;4959061;28;20030;-75
2023/03/23 01:54:55;;;;;;;34.22;4.57;;;10.60;99.90;;;;;;4961310;28;20034;-75
2023/03/23 01:57:23;;;;;;;40.55;6.45;;;10.60;99.90;;;;;;4943669;28;20035;-75
2023/03/23 01:59:51;;;;;;;43.15;5.25;;;10.60;99.90;;;;;;4942354;28;20640;-74
2023/03/23 02:02:20;;;;;;;36.42;5.07;;;10.50;99.90;;;;;;4947656;28;20082;-75
2023/03/23 02:04:45;;;;;;;42.63;5.43;;;10.50;99.90;;;;;;4960045;28;20550;-75
2023/03/23 02:07:14;;;;;;;34.22;5.00;;;10.40;99.90;;;;;;4960512;28;20061;-75
2023/03/23 02:09:39;;;;;;;42.15;5.03;;;10.40;99.90;;;;;;4959954;28;20130;-75
2023/03/23 02:12:05;;;;;;;49.05;5.97;;;10.40;99.90;;;;;;4944100;28;20550;-75
2023/03/23 02:14:31;;;;;;;35.60;4.95;;;10.40;99.90;;;;;;4961184;28;20535;-75
2023/03/23 02:17:20;;;;;;;44.67;5.80;;;10.30;99.90;;;;;;4960321;28;20074;-74
2023/03/23 02:19:57;;;;;;;35.70;4.78;;;10.30;99.90;;;;;;4956552;28;20256;-74
2023/03/23 02:22:50;;;;;;;44.58;5.35;;;10.30;99.90;;;;;;4929852;28;20031;-75
2023/03/23 02:25:46;;;;;;;41.88;5.28;;;10.20;99.90;;;;;;4979898;28;20054;-75
2023/03/23 02:28:49;;;;;;;41.53;5.95;;;10.10;99.90;;;;;;4979516;28;20604;-75
2023/03/23 02:31:38;;;;;;;40.33;5.10;;;10.10;99.90;;;;;;4940842;28;20105;-74
2023/03/23 02:34:39;;;;;;;42.80;5.95;;;10.10;99.90;;;;;;4971460;28;20117;-75
2023/03/23 02:37:24;;;;;;;45.97;5.83;;;10.00;99.90;;;;;;4960053;28;20057;-75
2023/03/23 02:39:56;;;;;;;40.55;6.50;;;10.00;99.90;;;;;;4978400;28;20121;-75
2023/03/23 02:42:28;;;;;;;49.22;5.00;;;10.00;99.90;;;;;;4971687;28;20229;-75
2023/03/23 02:44:55;;;;;;;38.63;5.38;;;9.90;99.90;;;;;;4969125;28;20042;-74
2023/03/23 02:47:25;;;;;;;40.13;5.78;;;9.90;99.90;;;;;;4978551;28;20034;-75
2023/03/23 02:49:52;;;;;;;52.25;5.15;;;9.80;99.90;;;;;;4977593;28;20030;-75
2023/03/23 02:52:22;;;;;;;29.20;4.78;;;9.80;99.90;;;;;;4977041;28;20461;-75
2023/03/23 02:54:50;;;;;;;49.95;6.47;;;9.70;99.90;;;;;;4979051;28;20541;-74
2023/03/23 02:57:17;;;;;;;54.42;7.22;;;9.70;99.90;;;;;;4979924;28;20472;-75
2023/03/23 02:59:42;;;;;;;46.78;6.15;;;9.80;99.90;;;;;;4979306;28;20106;-75
2023/03/23 03:02:21;;;;;;;50.75;5.55;;;9.90;99.90;;;;;;4978765;28;20122;-75
2023/03/23 03:05:09;;;;;;;45.60;5.55;;;9.90;99.90;;;;;;4978626;28;20128;-75
2023/03/23 03:07:56;;;;;;;45.70;6.35;;;10.00;99.90;;;;;;4961633;28;20080;-75
2023/03/23 03:11:02;;;;;;;46.60;5.63;;;10.00;99.90;;;;;;4960823;28;20117;-74
2023/03/23 03:13:47;;;;;;;47.20;5.65;;;9.90;99.90;;;;;;4969009;28;20180;-75
2023/03/23 03:16:31;;;;;;;41.03;5.57;;;9.80;99.90;;;;;;4977276;28;20510;-75
2023/03/23 03:19:11;;;;;;;44.40;5.40;;;9.70;99.90;;;;;;4976817;28;20532;-75
2023/03/23 03:21:41;;;;;;;45.88;6.00;;;9.70;99.90;;;;;;4976088;28;20039;-75
2023/03/23 03:24:10;;;;;;;42.33;5.15;;;9.70;99.90;;;;;;4947202;28;20079;-75
2023/03/23 03:26:39;;;;;;;48.05;7.07;;;9.70;99.90;;;;;;4948803;28;20034;-75
2023/03/23 03:29:06;;;;;;;51.92;6.90;;;9.70;99.90;;;;;;4940831;28;20575;-75
2023/03/23 03:31:39;;;;;;;41.00;6.00;;;9.70;99.90;;;;;;4958628;28;20444;-75
2023/03/23 03:34:06;;;;;;;44.08;5.55;;;9.70;99.90;;;;;;4958620;28;20339;-75
2023/03/23 03:36:34;;;;;;;38.53;5.65;;;9.80;99.90;;;;;;4950910;28;20467;-76
2023/03/23 03:39:07;;;;;;;39.35;5.72;;;9.80;99.90;;;;;;4929034;28;20035;-75
2023/03/23 03:41:35;;;;;;;28.65;4.75;;;9.80;99.90;;;;;;4943325;28;20031;-74
2023/03/23 03:44:01;;;;;;;40.33;5.13;;;9.90;99.90;;;;;;4961768;28;20130;-75
2023/03/23 03:46:29;;;;;;;38.58;4.82;;;9.90;99.90;;;;;;4957450;28;20046;-75
2023/03/23 03:48:56;;;;;;;43.30;5.43;;;10.00;99.90;;;;;;4957366;28;20089;-75
2023/03/23 03:51:22;;;;;;;32.38;4.20;;;10.00;99.90;;;;;;4937401;28;20062;-75
2023/03/23 03:53:48;;;;;;;41.90;4.45;;;10.00;99.90;;;;;;4958287;28;20031;-75
2023/03/23 03:56:14;;;;;;;26.42;4.03;;;10.00;99.90;;;;;;4953676;28;20069;-75
2023/03/23 03:58:42;;;;;;;28.15;4.30;;;9.90;99.90;;;;;;4959226;28;20382;-74
2023/03/23 04:01:09;;;;;;;43.67;4.35;;;9.90;99.90;;;;;;4941972;28;20034;-75
2023/03/23 04:03:36;;;;;;;26.85;3.25;;;9.90;99.90;;;;;;4941829;28;20364;-75
2023/03/23 04:06:02;;;;;;;27.38;3.33;;;9.90;99.90;;;;;;4960683;28;20038;-75
2023/03/23 04:08:28;;;;;;;31.58;4.32;;;9.80;99.90;;;;;;4931691;28;20037;-75
2023/03/23 04:10:54;;;;;;;23.55;2.92;;;9.70;99.90;;;;;;4942282;28;20034;-75
2023/03/23 04:13:20;;;;;;;20.60;3.70;;;9.70;99.90;;;;;;4960766;28;20360;-75
2023/03/23 04:15:47;;;;;;;23.67;2.92;;;9.50;99.90;;;;;;4960584;28;20023;-75
2023/03/23 04:18:14;;;;;;;21.15;3.67;;;9.50;99.90;;;;;;4959894;28;20019;-74
2023/03/23 04:20:42;;;;;;;20.77;3.20;;;9.50;99.90;;;;;;4959546;28;20023;-75
2023/03/23 04:23:08;;;;;;;26.23;3.80;;;9.50;99.90;;;;;;4944361;28;20368;-75
2023/03/23 04:25:33;;;;;;;20.05;3.50;;;9.40;99.90;;;;;;4977083;28;20494;-75
2023/03/23 04:28:01;;;;;;;22.20;2.65;;;9.40;99.90;;;;;;4979883;28;20041;-75
2023/03/23 04:30:28;;;;;;;24.17;2.85;;;9.30;99.90;;;;;;4979569;28;20456;-75
2023/03/23 04:32:55;;;;;;;17.60;2.17;;;9.30;99.90;;;;;;4978744;28;20045;-76
2023/03/23 04:35:24;;;;;;;12.35;2.05;;;9.30;99.90;;;;;;4961290;28;20133;-74
2023/03/23 04:37:50;;;;;;;14.02;2.65;;;9.20;99.90;;;;;;4976896;28;20282;-74
2023/03/23 04:40:16;;;;;;;20.38;2.00;;;9.20;99.90;;;;;;4979276;28;20541;-75
2023/03/23 04:42:46;;;;;;;15.23;2.65;;;9.20;99.90;;;;;;4977629;28;20026;-75
2023/03/23 04:45:16;;;;;;;19.35;3.28;;;9.30;99.90;;;;;;4962108;28;20466;-75
2023/03/23 04:47:49;;;;;;;20.30;2.78;;;9.20;99.90;;;;;;4959859;28;20026;-75
2023/03/23 04:50:15;;;;;;;21.80;2.65;;;9.20;99.90;;;;;;4978298;28;20033;-74
2023/03/23 04:52:44;;;;;;;26.00;3.97;;;9.10;99.90;;;;;;4962487;28;20031;-75
2023/03/23 04:55:12;;;;;;;24.20;2.88;;;9.00;99.90;;;;;;4978346;28;20038;-74
2023/03/23 04:57:37;;;;;;;15.20;2.33;;;9.00;99.90;;;;;;4975682;28;20498;-75
2023/03/23 05:00:08;;;;;;;20.88;2.67;;;8.80;99.90;;;;;;4977923;28;20037;-75
2023/03/23 05:02:39;;;;;;;24.67;2.75;;;8.80;99.90;;;;;;4971700;28;20034;-74
2023/03/23 05:05:06;;;;;;;24.95;2.53;;;8.80;99.90;;;;;;4977063;28;20120;-75
2023/03/23 05:07:31;;;;;;;26.15;2.97;;;8.80;99.90;;;;;;4977020;28;20293;-75
2023/03/23 05:09:57;;;;;;;21.33;2.53;;;8.80;99.90;;;;;;4978051;28;20031;-75
2023/03/23 05:12:23;;;;;;;26.73;3.50;;;8.80;99.90;;;;;;4960018;28;20065;-74
2023/03/23 05:14:48;;;;;;;24.58;3.90;;;8.80;99.90;;;;;;4974043;28;20037;-74
2023/03/23 05:17:16;;;;;;;31.88;3.67;;;8.80;99.90;;;;;;4975357;28;20045;-75
2023/03/23 05:19:44;;;;;;;28.02;3.08;;;8.80;99.90;;;;;;4962998;28;20508;-75
2023/03/23 05:22:12;;;;;;;27.85;3.75;;;8.90;99.90;;;;;;4976557;28;20030;-74
2023/03/23 05:24:38;;;;;;;27.77;3.47;;;9.00;99.90;;;;;;4975522;28;20453;-76
2023/03/23 05:27:04;;;;;;;23.58;3.97;;;9.10;99.90;;;;;;4973617;28;20081;-74
2023/03/23 05:29:33;;;;;;;31.15;4.47;;;9.30;99.90;;;;;;4976806;28;20038;-75
2023/03/23 05:32:02;;;;;;;32.15;3.75;;;9.30;99.90;;;;;;4955599;28;20056;-75
2023/03/23 05:34:28;;;;;;;38.35;4.90;;;9.30;99.90;;;;;;4974807;28;20615;-74
2023/03/23 05:36:55;;;;;;;29.00;3.45;;;9.40;99.90;;;;;;4958604;28;20033;-75
2023/03/23 05:39:21;;;;;;;34.08;4.63;;;9.50;99.90;;;;;;4972240;28;20426;-75
2023/03/23 05:41:47;;;;;;;32.13;3.88;;;9.40;99.90;;;;;;4961958;28;20569;-75
2023/03/23 05:44:13;;;;;;;38.08;4.88;;;9.40;99.90;;;;;;4967597;28;20042;-75
2023/03/23 05:46:39;;;;;;;36.75;4.35;;;9.30;99.90;;;;;;4977540;28;20069;-75
2023/03/23 05:49:05;;;;;;;38.15;4.13;;;9.30;99.90;;;;;;4978667;28;20459;-75
2023/03/23 05:51:31;;;;;;;34.15;3.97;;;9.40;99.90;;;;;;4978731;28;20034;-74
2023/03/23 05:53:57;;;;;;;36.65;4.97;;;9.40;99.90;;;;;;4959258;28;20034;-75
2023/03/23 05:56:23;;;;;;;37.40;4.97;;;9.40;99.90;;;;;;4969044;28;20034;-75
2023/03/23 05:58:48;;;;;;;35.45;5.22;;;9.40;99.90;;;;;;4959341;28;20047;-75
2023/03/23 06:01:15;;;;;;;36.67;5.50;;;9.40;99.90;;;;;;4975546;28;20505;-74
2023/03/23 06:03:41;;;;;;;39.08;4.50;;;9.40;99.90;;;;;;4974628;28;20464;-75
2023/03/23 06:06:11;;;;;;;45.28;4.93;;;9.40;99.90;;;;;;4955849;28;20034;-75
2023/03/23 06:08:37;;;;;;;38.60;4.72;;;9.40;99.90;;;;;;4939009;28;20057;-75
2023/03/23 06:11:03;;;;;;;31.00;4.40;;;9.50;99.90;;;;;;4973635;28;20030;-75
2023/03/23 06:13:29;;;;;;;40.38;4.72;;;9.60;99.90;;;;;;4960611;28;20030;-75
2023/03/23 06:15:57;;;;;;;40.92;5.45;;;9.60;99.90;;;;;;4959539;28;20685;-75
2023/03/23 06:18:24;;;;;;;32.95;4.63;;;9.70;99.90;;;;;;4979011;28;20049;-75
2023/03/23 06:20:50;;;;;;;39.05;4.93;;;9.80;99.90;;;;;;4969582;28;20039;-75
2023/03/23 06:23:17;;;;;;;28.17;5.03;;;9.90;99.90;;;;;;4953598;28;20043;-75
2023/03/23 06:25:43;;;;;;;30.85;4.47;;;10.00;99.90;;;;;;4955938;28;20395;-75
2023/03/23 06:28:09;;;;;;;29.98;3.90;;;10.10;99.90;;;;;;4975504;28;20534;-75
2023/03/23 06:30:36;;;;;;;40.90;4.35;;;10.20;99.90;;;;;;4975165;28;20053;-74
2023/03/23 06:33:05;;;;;;;35.00;5.47;;;10.20;99.90;;;;;;4967300;28;20030;-75
2023/03/23 06:35:33;;;;;;;32.70;4.55;;;10.30;99.90;;;;;;4953672;28;20038;-76
2023/03/23 06:38:01;;;;;;;35.90;4.63;;;10.40;99.90;;;;;;4951217;28;20031;-75
2023/03/23 06:40:28;;;;;;;31.23;4.97;;;10.50;99.90;;;;;;4954895;28;20045;-77
2023/03/23 06:42:57;;;;;;;35.75;4.28;;;10.50;99.90;;;;;;4972389;28;20026;-75
2023/03/23 06:45:23;;;;;;;37.75;5.00;;;10.50;99.90;;;;;;4969151;28;20165;-75
2023/03/23 06:47:48;;;;;;;35.63;4.28;;;10.60;99.90;;;;;;4975991;28;20117;-75
2023/03/23 06:50:16;;;;;;;34.55;4.38;;;10.70;99.90;;;;;;4956428;28;20066;-75
2023/03/23 06:52:46;;;;;;;31.02;4.07;;;10.70;99.90;;;;;;4958302;28;20121;-75
2023/03/23 06:55:13;;;;;;;38.65;5.10;;;10.70;99.90;;;;;;4956753;28;20058;-74
2023/03/23 06:57:38;;;;;;;40.85;4.95;;;10.70;99.90;;;;;;4959333;28;20434;-75
2023/03/23 07:00:05;;;;;;;29.92;3.97;;;10.70;99.90;;;;;;4960703;28;20039;-75
2023/03/23 07:02:34;;;;;;;28.67;4.43;;;10.70;99.90;;;;;;4974180;28;20784;-75
2023/03/23 07:05:00;;;;;;;30.33;4.45;;;10.70;99.90;;;;;;4948687;28;20042;-75
2023/03/23 07:07:26;;;;;;;29.23;3.83;;;10.80;99.90;;;;;;4971380;28;20022;-75
2023/03/23 07:09:51;;;;;;;29.95;4.32;;;10.90;99.90;;;;;;4968374;28;20038;-75
2023/03/23 07:12:17;;;;;;;24.27;3.30;;;10.90;99.90;;;;;;4969019;28;20037;-75
2023/03/23 07:14:43;;;;;;;28.85;4.05;;;11.00;99.90;;;;;;4955285;28;20522;-74
2023/03/23 07:17:09;;;;;;;32.42;4.25;;;11.10;99.90;;;;;;4972078;28;20038;-75
2023/03/23 07:19:35;;;;;;;33.67;3.97;;;11.20;99.90;;;;;;4976698;28;20026;-75
2023/03/23 07:22:01;;;;;;;35.42;4.22;;;11.20;99.90;;;;;;4964060;28;20117;-76
2023/03/23 07:24:27;;;;;;;25.33;3.63;;;11.40;99.90;;;;;;4981653;28;20134;-75
2023/03/23 07:26:53;;;;;;;26.55;4.10;;;11.50;99.90;;;;;;4982737;28;20612;-75
2023/03/23 07:29:18;;;;;;;29.80;4.75;;;11.50;99.90;;;;;;4982300;28;20529;-75
2023/03/23 07:31:44;;;;;;;27.60;4.43;;;11.70;99.90;;;;;;4960297;28;20081;-75
2023/03/23 07:34:10;;;;;;;26.23;4.25;;;11.80;99.90;;;;;;4978958;28;20034;-75
2023/03/23 07:36:37;;;;;;;26.27;4.07;;;11.80;99.90;;;;;;4978827;28;20057;-75
2023/03/23 07:39:05;;;;;;;33.28;4.72;;;11.90;99.90;;;;;;4971909;28;20946;-75
2023/03/23 07:41:31;;;;;;;27.73;4.15;;;12.10;99.90;;;;;;4969690;28;20034;-75
2023/03/23 07:43:57;;;;;;;27.88;3.78;;;12.10;99.90;;;;;;4968591;28;20486;-75
2023/03/23 07:46:23;;;;;;;31.55;4.05;;;12.10;99.90;;;;;;4969196;28;20046;-75
2023/03/23 07:48:49;;;;;;;27.45;3.92;;;12.20;99.90;;;;;;4946781;28;20031;-75
2023/03/23 07:51:18;;;;;;;28.92;4.97;;;12.40;99.90;;;;;;4959061;28;20046;-75
2023/03/23 07:53:44;;;;;;;30.85;4.68;;;12.50;99.90;;;;;;4977276;28;20118;-75
2023/03/23 07:56:14;;;;;;;26.02;4.18;;;12.50;99.90;;;;;;4974195;28;20458;-75
2023/03/23 07:58:41;;;;;;;25.15;3.92;;;12.70;99.90;;;;;;4970934;28;20053;-76
2023/03/23 08:01:07;;;;;;;25.67;4.47;;;13.20;99.90;;;;;;4976946;28;20029;-76
2023/03/23 08:03:33;;;;;;;39.95;4.45;;;13.00;99.90;;;;;;4974077;28;20030;-75
2023/03/23 08:05:59;;;;;;;29.63;4.40;;;13.20;99.90;;;;;;4952968;28;20031;-75
2023/03/23 08:08:25;;;;;;;21.95;3.88;;;13.50;99.90;;;;;;4961808;28;20390;-75
2023/03/23 08:10:51;;;;;;;28.80;4.53;;;14.90;99.90;;;;;;4962290;28;20038;-75
2023/03/23 08:13:18;;;;;;;24.05;3.67;;;15.60;98.10;;;;;;4979160;28;20030;-76
2023/03/23 08:15:44;;;;;;;25.63;5.00;;;16.40;91.40;;;;;;4960173;28;20041;-75
2023/03/23 08:18:10;;;;;;;35.65;3.72;;;16.30;87.30;;;;;;4963218;28;20119;-75
2023/03/23 08:20:36;;;;;;;28.02;4.68;;;15.70;92.00;;;;;;4957121;28;20951;-77
2023/03/23 08:23:03;;;;;;;17.13;3.13;;;15.60;96.40;;;;;;4966650;28;20386;-75
2023/03/23 08:25:31;;;;;;;24.80;3.90;;;16.40;88.90;;;;;;4961960;28;20077;-74
2023/03/23 08:27:57;;;;;;;21.05;4.25;;;16.50;86.10;;;;;;4960331;28;20085;-74
2023/03/23 08:30:24;;;;;;;19.88;3.47;;;15.60;91.40;;;;;;4962185;28;20046;-74
2023/03/23 08:32:50;;;;;;;28.67;3.70;;;14.70;95.50;;;;;;4958017;28;20133;-74
2023/03/23 08:35:17;;;;;;;24.23;3.60;;;15.10;96.30;;;;;;4947972;28;20093;-74
2023/03/23 08:37:43;;;;;;;18.15;3.33;;;16.40;84.00;;;;;;4953508;28;22056;-75
2023/03/23 08:40:11;;;;;;;27.88;3.58;;;18.10;68.60;;;;;;4963006;28;20023;-74
2023/03/23 08:42:42;;;;;;;14.77;2.85;;;19.00;60.80;;;;;;4950644;28;20089;-74
2023/03/23 08:45:11;;;;;;;17.33;3.50;;;20.50;56.20;;;;;;4967375;28;20325;-75
2023/03/23 08:47:37;;;;;;;16.88;2.97;;;20.60;54.20;;;;;;4947370;28;20103;-75
2023/03/23 08:50:05;;;;;;;18.20;3.78;;;21.90;52.90;;;;;;4970176;28;20080;-75
2023/03/23 08:52:31;;;;;;;19.73;3.42;;;22.40;48.50;;;;;;4979653;28;20040;-75
2023/03/23 08:54:56;;;;;;;17.35;3.30;;;21.30;48.80;;;;;;4959382;28;20079;-76
2023/03/23 08:57:24;;;;;;;13.43;3.13;;;21.00;50.40;;;;;;4969597;28;20502;-75
2023/03/23 08:59:50;;;;;;;17.70;3.30;;;21.00;53.40;;;;;;4947215;28;20031;-75
2023/03/23 09:02:16;;;;;;;21.52;4.00;;;19.50;54.70;;;;;;4971058;28;20394;-78
2023/03/23 09:04:42;;;;;;;26.15;4.38;;;19.70;57.60;;;;;;4956667;28;20049;-75
2023/03/23 09:07:12;;;;;;;23.75;3.50;;;19.60;57.40;;;;;;4977682;28;20033;-74
2023/03/23 09:09:39;;;;;;;21.88;3.90;;;20.00;54.50;;;;;;4955749;28;20041;-75
2023/03/23 09:12:06;;;;;;;17.85;3.72;;;20.80;53.90;;;;;;4957488;28;20530;-74
2023/03/23 09:14:32;;;;;;;22.30;4.60;;;21.50;52.40;;;;;;4975374;28;20034;-75
2023/03/23 09:16:57;;;;;;;16.90;3.80;;;22.30;49.60;;;;;;4945704;28;20050;-74
2023/03/23 09:19:23;;;;;;;21.77;4.32;;;22.90;49.70;;;;;;4978270;28;20030;-74
2023/03/23 09:21:49;;;;;;;20.90;4.05;;;23.40;45.80;;;;;;4953469;28;20038;-74
2023/03/23 09:24:14;;;;;;;15.18;3.97;;;23.70;45.00;;;;;;4967266;28;20058;-75
2023/03/23 09:26:40;;;;;;;21.70;3.90;;;22.20;48.80;;;;;;4957992;28;20022;-75
2023/03/23 09:29:06;;;;;;;24.70;4.38;;;20.30;55.40;;;;;;4978355;28;20054;-74
2023/03/23 09:31:32;;;;;;;18.08;3.53;;;18.30;61.90;;;;;;4954514;28;20022;-74
2023/03/23 09:33:59;;;;;;;26.92;4.00;;;17.40;75.20;;;;;;4968357;28;20569;-75
2023/03/23 09:36:25;;;;;;;21.33;3.70;;;17.70;79.10;;;;;;4960945;28;20110;-74
2023/03/23 09:38:52;;;;;;;22.65;4.03;;;18.60;65.90;;;;;;4976081;28;20018;-75
2023/03/23 09:41:49;;;;;;;20.67;4.75;;;19.20;59.50;;;;;;4969127;28;20100;-75
2023/03/23 09:44:35;;;;;;;18.13;3.38;;;20.50;57.10;;;;;;4961833;28;20129;-75
2023/03/23 09:47:14;;;;;;;28.58;3.80;;;21.50;54.20;;;;;;4958782;28;20494;-75
2023/03/23 09:49:56;;;;;;;21.33;3.75;;;21.70;51.00;;;;;;4944549;28;20131;-74
2023/03/23 09:52:26;;;;;;;14.02;3.28;;;21.60;50.20;;;;;;4979371;28;20117;-75
2023/03/23 09:54:55;;;;;;;20.45;3.88;;;21.20;52.10;;;;;;4975346;28;20359;-75
2023/03/23 09:57:32;;;;;;;17.17;3.65;;;21.60;50.10;;;;;;4974180;28;20232;-75
2023/03/23 09:59:58;;;;;;;17.30;3.70;;;21.30;49.30;;;;;;4960760;28;20037;-74
2023/03/23 10:02:33;;;;;;;20.08;3.60;;;22.50;51.10;;;;;;4958174;28;20105;-75
2023/03/23 10:05:19;;;;;;;18.58;4.18;;;23.40;48.20;;;;;;4974248;28;20536;-75
2023/03/23 10:07:44;;;;;;;21.30;4.10;;;24.10;45.10;;;;;;4978719;28;20349;-75
2023/03/23 10:10:13;;;;;;;18.00;3.85;;;23.40;46.50;;;;;;4970246;28;20035;-75
2023/03/23 10:12:54;;;;;;;22.85;4.05;;;22.20;46.90;;;;;;4977275;28;20053;-76
2023/03/23 10:15:36;;;;;;;18.58;3.53;;;21.70;49.80;;;;;;4979381;28;20035;-74
2023/03/23 10:18:41;;;;;;;16.80;3.25;;;21.40;50.90;;;;;;4959466;28;20032;-75
2023/03/23 10:21:21;;;;;;;17.42;3.28;;;23.40;46.60;;;;;;4924643;28;20049;-75
2023/03/23 10:23:58;;;;;;;15.00;3.70;;;22.90;45.70;;;;;;4959867;28;20058;-75
2023/03/23 10:26:32;;;;;;;17.55;4.75;;;22.60;45.50;;;;;;4964952;28;20035;-75
2023/03/23 10:29:06;;;;;;;15.70;4.05;;;21.50;50.00;;;;;;4974237;28;20058;-75
2023/03/23 10:31:37;;;;;;;15.70;3.63;;;20.80;50.50;;;;;;4960139;28;20345;-73
2023/03/23 10:34:10;;;;;;;;;;;20.80;52.00;;;;;;4977481;28;20140;-75
2023/03/23 10:36:40;;;;;;;22.33;3.88;;;19.40;54.60;;;;;;4964983;28;19925;-75
2023/03/23 10:39:23;;;;;;;25.42;4.55;;;18.30;58.00;;;;;;4970823;28;20295;-74
2023/03/23 10:41:49;;;;;;;21.98;4.07;;;17.90;63.30;;;;;;4977309;28;20046;-74
2023/03/23 10:44:27;;;;;;;28.20;4.57;;;18.30;66.60;;;;;;4977840;28;20034;-75
2023/03/23 10:47:02;;;;;;;26.30;4.72;;;19.20;59.30;;;;;;4971718;28;20035;-75
2023/03/23 10:49:33;;;;;;;22.08;4.05;;;19.20;57.70;;;;;;4956713;28;20053;-74
2023/03/23 10:52:20;;;;;;;19.05;3.83;;;19.80;58.90;;;;;;4976310;28;20030;-75
2023/03/23 10:54:57;;;;;;;20.35;3.67;;;19.50;56.80;;;;;;4978214;28;20072;-74
2023/03/23 10:57:31;;;;;;;22.90;3.95;;;19.90;56.70;;;;;;4971425;28;20086;-74
2023/03/23 11:00:08;;;;;;;23.55;4.40;;;20.20;55.10;;;;;;4953608;28;20030;-74
2023/03/23 11:02:45;;;;;;;25.95;5.00;;;20.00;54.40;;;;;;4972812;28;20048;-75
2023/03/23 11:05:22;;;;;;;26.45;4.00;;;19.60;58.30;;;;;;4956642;28;20121;-74
2023/03/23 11:07:59;;;;;;;20.90;4.18;;;20.40;54.90;;;;;;4974336;28;20022;-73
2023/03/23 11:10:36;;;;;;;21.85;4.43;;;20.30;55.00;;;;;;4961888;28;20414;-74
2023/03/23 11:13:04;;;;;;;24.05;4.45;;;19.60;55.30;;;;;;4971449;28;20034;-74
2023/03/23 11:15:37;;;;;;;26.90;4.68;;;18.50;61.10;;;;;;4976967;28;20026;-75
2023/03/23 11:18:10;;;;;;;26.02;4.32;;;18.70;62.60;;;;;;4973062;28;20023;-74
2023/03/23 11:20:39;;;;;;;25.70;4.40;;;18.60;61.90;;;;;;4977071;28;20031;-75
2023/03/23 11:23:20;;;;;;;23.85;4.22;;;18.30;63.90;;;;;;4956707;28;20026;-74
2023/03/23 11:26:00;;;;;;;;;;;19.00;65.50;;;;;;4944837;28;20718;-75
2023/03/23 11:28:30;;;;;;;20.35;3.50;;;20.10;58.10;;;;;;4946621;28;20342;-74
2023/03/23 11:30:56;;;;;;;28.83;4.25;;;20.50;56.40;;;;;;4942532;28;20034;-75
2023/03/23 11:33:24;;;;;;;26.25;4.53;;;20.40;55.90;;;;;;4948795;28;20035;-74
2023/03/23 11:35:53;;;;;;;27.75;4.70;;;19.90;58.20;;;;;;4947518;28;20328;-75
2023/03/23 11:38:21;;;;;;;27.88;4.63;;;19.60;59.30;;;;;;4943376;28;20066;-74
2023/03/23 11:40:49;;;;;;;26.10;4.50;;;19.50;61.50;;;;;;4944175;28;20026;-74
2023/03/23 11:43:24;;;;;;;22.90;4.20;;;19.40;59.40;;;;;;4931513;28;20035;-75
2023/03/23 11:46:13;;;;;;;28.95;4.57;;;19.00;62.70;;;;;;4936644;28;20142;-74
2023/03/23 11:48:47;;;;;;;27.17;4.90;;;18.70;60.90;;;;;;4938749;28;20138;-74
2023/03/23 11:51:37;;;;;;;28.20;4.90;;;18.30;66.30;;;;;;4937889;28;20531;-74
2023/03/23 11:54:22;;;;;;;21.15;4.20;;;17.80;67.00;;;;;;4938771;28;20530;-75
2023/03/23 11:56:47;;;;;;;26.70;4.65;;;18.20;76.10;;;;;;4937820;28;20054;-74
2023/03/23 11:59:16;;;;;;;31.48;4.82;;;17.30;70.40;;;;;;4935524;28;20510;-75
2023/03/23 12:02:21;;;;;;;26.98;5.00;;;16.90;75.20;;;;;;4948431;28;20145;-74
2023/03/23 12:05:24;;;;;;;28.50;4.45;;;16.70;79.30;;;;;;4952616;28;20039;-74
2023/03/23 12:07:52;;;;;;;28.30;4.18;;;16.60;90.40;;;;;;4938983;28;20030;-74
2023/03/23 12:10:35;;;;;;;29.20;4.50;;;16.90;85.00;;;;;;4958165;28;20495;-75
2023/03/23 12:13:11;;;;;;;28.10;4.88;;;17.00;77.10;;;;;;4938625;28;20498;-74
2023/03/23 12:15:36;;;;;;;28.52;4.25;;;16.70;82.00;;;;;;4944459;28;20046;-74
2023/03/23 12:18:35;;;;;;;29.15;4.78;;;17.20;81.00;;;;;;4958527;28;20551;-75
2023/03/23 12:21:13;;;;;;;27.13;4.03;;;18.10;74.90;;;;;;4942152;28;20426;-75
2023/03/23 12:23:57;;;;;;;23.15;4.13;;;18.30;70.60;;;;;;4960883;28;20052;-74
2023/03/23 12:26:39;;;;;;;28.35;5.13;;;17.80;66.00;;;;;;4965626;28;20118;-75
2023/03/23 12:29:19;;;;;;;23.52;4.50;;;17.60;76.80;;;;;;4957904;28;20049;-73
2023/03/23 12:31:48;;;;;;;25.60;3.53;;;17.10;74.20;;;;;;4961336;28;20089;-74
2023/03/23 12:34:53;;;;;;;22.45;3.63;;;16.30;78.70;;;;;;4978586;28;20048;-74
2023/03/23 12:37:27;;;;;;;22.67;4.32;;;16.30;84.00;;;;;;4972968;28;20410;-74
2023/03/23 12:40:29;;;;;;;25.52;4.82;;;16.10;83.70;;;;;;4978832;28;20046;-74
2023/03/23 12:43:13;;;;;;;22.50;3.78;;;15.80;86.90;;;;;;4973190;28;20338;-74
2023/03/23 12:46:06;;;;;;;20.27;3.67;;;15.60;88.50;;;;;;4956884;28;20421;-75
2023/03/23 12:48:37;;;;;;;23.60;3.83;;;15.50;91.50;;;;;;4973231;28;20401;-74
2023/03/23 12:51:15;;;;;;;19.13;3.00;;;15.40;81.00;;;;;;4978998;28;20564;-74
2023/03/23 12:53:58;;;;;;;21.98;3.15;;;15.40;87.20;;;;;;4968682;28;20046;-74
2023/03/23 12:56:53;;;;;;;25.23;3.60;;;15.10;93.10;;;;;;4965491;28;20088;-74
2023/03/23 12:59:38;;;;;;;18.13;3.00;;;14.90;95.80;;;;;;4972915;28;20035;-74